Katterjakk, Sweden

3:19 AM CEST on September 20, 2014 (GMT +0200)
Bardu | Change Station
CLOSE
Current Station
Personal Weather Station
Location: Bardu, TROMS
Elevation: 1663 ft
Nearby Weather Stations

Elev 1663 ft 68.66 °N, 18.88 °E | Updated 5 minutes ago

Light Rain
Light Rain
40.5 °F
Feels Like 40 °F
N
2.0
Wind Variable Wind from NNE
Gusts 3.0 mph

Today
High -- | Low -- °F
--% Chance of Precip.
Yesterday
High -- | Low -- °F
Precip. -- in
6:20 AM 6:59 PM
Waning Crescent, 15% visible
Pressure 29.83 in
Visibility 4.3 miles
Clouds Few 700 ft
Scattered Clouds 2000 ft
Overcast 2800 ft
Windchill 40 °F
Dew Point 36 °F
Humidity 85%
Rainfall 0.01 in
Snow Depth Not available.
UV 0 out of 12
Pollen Not available.
Air Quality Not available.
Flu Activity Not available.
METAR ENEV 200050Z AUTO 20003KT 7000NDV -RA FEW007/// SCT020/// OVC028/// 07/06 Q1010 REDZ RMK

More Conditions Fewer Conditions

Pressure 29.83 in
Visibility 4.3 miles
Clouds Few 700 ft
Scattered Clouds 2000 ft
Overcast 2800 ft
Windchill 40 °F
Dew Point 36 °F
Humidity 85%
Rainfall 0.01 in
Snow Depth Not available.
UV 0 out of 12
Pollen Not available.
Air Quality Not available.
Flu Activity Not available.
METAR ENEV 200050Z AUTO 20003KT 7000NDV -RA FEW007/// SCT020/// OVC028/// 07/06 Q1010 REDZ RMK

More Conditions Fewer Conditions

10-Day Weather Forecast

Almanac

Astronomy

Sep. 20, 2014 Rise Set
Actual Time 6:20 AM CEST 6:59 PM CEST
Civil Twilight 5:22 AM CEST 7:56 PM CEST
Nautical Twilight 4:08 AM CEST 9:09 PM CEST
Astronomical Twilight 2:27 AM CEST 10:46 PM CEST
Moon 1:14 AM CEST 6:02 PM CEST
Length of Visible Light 14h 33m
Length of Day
12h 38m
Tomorrow will be 7m 53s shorter.
Waning Crescent, 15% of the Moon is Illuminated
Sep 19
Waning Crescent
Sep 24
New
Oct 1
First Quarter
Oct 8
Full
Oct 15
Last Quarter

Yesterday's Extremes

Country Highs Country Lows

Community

WunderPhotos

Upload Photos

1,754,755 photos uploaded!

WunderBlogs® & News

Nearby

Snow Depth

Not available.

Earthquake Activity

City Distance Mag. Time & Date
No recent earthquake activity has been reported nearby.
Minimum magnitude displayed is 2.5.

Coastal Water Temperatures

Place Temperature
No Stations Reporting

Nearby Weather Stations